sensor_id;sensor_type;location;lat;lon;timestamp;pressure;altitude;pressure_sealevel;temperature;humidity
51333;BME280;37417;48.118;11.734;2023-05-23T00:01:05;95117.56;;;14.95;100.00
51333;BME280;37417;48.118;11.734;2023-05-23T00:03:53;95121.75;;;14.96;100.00
51333;BME280;37417;48.118;11.734;2023-05-23T00:06:40;95119.59;;;14.93;100.00
51333;BME280;37417;48.118;11.734;2023-05-23T00:09:31;95127.94;;;15.02;100.00
51333;BME280;37417;48.118;11.734;2023-05-23T00:12:16;95126.53;;;14.99;100.00
51333;BME280;37417;48.118;11.734;2023-05-23T00:15:02;95130.81;;;14.88;100.00
51333;BME280;37417;48.118;11.734;2023-05-23T00:17:48;95135.25;;;14.88;100.00
51333;BME280;37417;48.118;11.734;2023-05-23T00:20:35;95129.41;;;14.86;100.00
51333;BME280;37417;48.118;11.734;2023-05-23T00:23:21;95134.53;;;14.81;100.00
51333;BME280;37417;48.118;11.734;2023-05-23T00:26:09;95132.41;;;14.78;100.00
51333;BME280;37417;48.118;11.734;2023-05-23T00:28:56;95134.09;;;14.84;100.00
51333;BME280;37417;48.118;11.734;2023-05-23T00:31:42;95136.97;;;14.82;100.00
51333;BME280;37417;48.118;11.734;2023-05-23T00:34:30;95138.56;;;14.83;100.00
51333;BME280;37417;48.118;11.734;2023-05-23T00:37:16;95139.34;;;14.84;100.00
51333;BME280;37417;48.118;11.734;2023-05-23T00:40:02;95141.19;;;14.95;100.00
51333;BME280;37417;48.118;11.734;2023-05-23T00:42:48;95135.13;;;14.95;100.00
51333;BME280;37417;48.118;11.734;2023-05-23T00:45:34;95129.16;;;14.99;100.00
51333;BME280;37417;48.118;11.734;2023-05-23T00:48:20;95129.75;;;15.01;100.00
51333;BME280;37417;48.118;11.734;2023-05-23T00:51:06;95135.34;;;15.05;100.00
51333;BME280;37417;48.118;11.734;2023-05-23T00:53:52;95137.06;;;14.99;100.00
51333;BME280;37417;48.118;11.734;2023-05-23T00:56:38;95137.72;;;15.06;100.00
51333;BME280;37417;48.118;11.734;2023-05-23T00:59:24;95131.22;;;15.09;100.00
51333;BME280;37417;48.118;11.734;2023-05-23T01:02:10;95134.66;;;15.09;100.00
51333;BME280;37417;48.118;11.734;2023-05-23T01:04:57;95135.44;;;15.10;100.00
51333;BME280;37417;48.118;11.734;2023-05-23T01:07:49;95133.16;;;15.13;100.00
51333;BME280;37417;48.118;11.734;2023-05-23T01:10:35;95136.69;;;15.19;100.00
51333;BME280;37417;48.118;11.734;2023-05-23T01:16:31;95138.97;;;15.27;100.00
51333;BME280;37417;48.118;11.734;2023-05-23T01:19:48;95143.22;;;15.16;100.00
51333;BME280;37417;48.118;11.734;2023-05-23T01:22:58;95141.25;;;15.12;100.00
51333;BME280;37417;48.118;11.734;2023-05-23T01:26:02;95144.25;;;15.15;100.00
51333;BME280;37417;48.118;11.734;2023-05-23T01:28:52;95141.25;;;15.12;100.00
51333;BME280;37417;48.118;11.734;2023-05-23T01:31:43;95149.72;;;15.14;100.00
51333;BME280;37417;48.118;11.734;2023-05-23T01:34:30;95155.19;;;15.12;100.00
51333;BME280;37417;48.118;11.734;2023-05-23T01:37:18;95151.78;;;15.12;100.00
51333;BME280;37417;48.118;11.734;2023-05-23T01:40:05;95154.53;;;15.05;100.00
51333;BME280;37417;48.118;11.734;2023-05-23T01:42:51;95152.56;;;15.12;100.00
51333;BME280;37417;48.118;11.734;2023-05-23T01:45:38;95153.03;;;15.09;100.00
51333;BME280;37417;48.118;11.734;2023-05-23T01:48:25;95156.81;;;15.13;100.00
51333;BME280;37417;48.118;11.734;2023-05-23T01:51:13;95152.78;;;15.23;100.00
51333;BME280;37417;48.118;11.734;2023-05-23T01:53:59;95157.38;;;15.15;100.00
51333;BME280;37417;48.118;11.734;2023-05-23T01:56:46;95157.03;;;15.12;100.00
51333;BME280;37417;48.118;11.734;2023-05-23T01:59:32;95151.31;;;15.15;100.00
51333;BME280;37417;48.118;11.734;2023-05-23T02:02:18;95158.84;;;15.23;100.00
51333;BME280;37417;48.118;11.734;2023-05-23T02:05:04;95162.63;;;15.15;100.00
51333;BME280;37417;48.118;11.734;2023-05-23T02:07:49;95169.84;;;15.20;100.00
51333;BME280;37417;48.118;11.734;2023-05-23T02:10:35;95169.94;;;15.13;100.00
51333;BME280;37417;48.118;11.734;2023-05-23T02:13:21;95181.94;;;15.09;100.00
51333;BME280;37417;48.118;11.734;2023-05-23T02:16:06;95180.22;;;15.03;100.00
51333;BME280;37417;48.118;11.734;2023-05-23T02:18:52;95185.81;;;14.83;100.00
51333;BME280;37417;48.118;11.734;2023-05-23T02:21:40;95196.28;;;14.48;100.00
51333;BME280;37417;48.118;11.734;2023-05-23T02:24:26;95194.94;;;14.27;100.00
51333;BME280;37417;48.118;11.734;2023-05-23T02:27:11;95199.94;;;14.17;100.00
51333;BME280;37417;48.118;11.734;2023-05-23T02:29:57;95202.19;;;14.14;100.00
51333;BME280;37417;48.118;11.734;2023-05-23T02:32:43;95209.38;;;14.06;100.00
51333;BME280;37417;48.118;11.734;2023-05-23T02:35:28;95208.66;;;13.99;100.00
51333;BME280;37417;48.118;11.734;2023-05-23T02:38:14;95216.28;;;14.01;100.00
51333;BME280;37417;48.118;11.734;2023-05-23T02:41:00;95216.44;;;14.06;100.00
51333;BME280;37417;48.118;11.734;2023-05-23T02:43:46;95215.63;;;14.05;100.00
51333;BME280;37417;48.118;11.734;2023-05-23T02:46:31;95222.03;;;14.09;100.00
51333;BME280;37417;48.118;11.734;2023-05-23T02:49:17;95229.00;;;14.16;100.00
51333;BME280;37417;48.118;11.734;2023-05-23T02:52:03;95227.63;;;14.13;100.00
51333;BME280;37417;48.118;11.734;2023-05-23T02:54:48;95228.66;;;14.12;100.00
51333;BME280;37417;48.118;11.734;2023-05-23T02:57:34;95227.72;;;14.06;100.00
51333;BME280;37417;48.118;11.734;2023-05-23T03:00:20;95226.84;;;14.13;100.00
51333;BME280;37417;48.118;11.734;2023-05-23T03:03:06;95222.47;;;14.06;100.00
51333;BME280;37417;48.118;11.734;2023-05-23T03:05:51;95232.91;;;13.95;100.00
51333;BME280;37417;48.118;11.734;2023-05-23T03:08:38;95226.72;;;13.89;100.00
51333;BME280;37417;48.118;11.734;2023-05-23T03:11:23;95222.38;;;13.83;100.00
51333;BME280;37417;48.118;11.734;2023-05-23T03:14:09;95225.13;;;13.88;100.00
51333;BME280;37417;48.118;11.734;2023-05-23T03:16:55;95226.66;;;13.96;100.00
51333;BME280;37417;48.118;11.734;2023-05-23T03:19:41;95217.25;;;13.88;100.00
51333;BME280;37417;48.118;11.734;2023-05-23T03:22:26;95219.66;;;13.90;100.00
51333;BME280;37417;48.118;11.734;2023-05-23T03:25:14;95219.09;;;13.88;100.00
51333;BME280;37417;48.118;11.734;2023-05-23T03:28:00;95219.16;;;13.81;100.00
51333;BME280;37417;48.118;11.734;2023-05-23T03:30:45;95219.09;;;13.88;100.00
51333;BME280;37417;48.118;11.734;2023-05-23T03:33:32;95219.16;;;13.81;100.00
51333;BME280;37417;48.118;11.734;2023-05-23T03:36:17;95216.63;;;13.74;100.00
51333;BME280;37417;48.118;11.734;2023-05-23T03:39:03;95227.59;;;13.83;100.00
51333;BME280;37417;48.118;11.734;2023-05-23T03:41:49;95229.09;;;13.79;100.00
51333;BME280;37417;48.118;11.734;2023-05-23T03:44:34;95231.97;;;13.89;100.00
51333;BME280;37417;48.118;11.734;2023-05-23T03:47:20;95233.72;;;13.95;100.00
51333;BME280;37417;48.118;11.734;2023-05-23T03:50:06;95233.75;;;14.07;100.00
51333;BME280;37417;48.118;11.734;2023-05-23T03:52:52;95227.72;;;14.06;100.00
51333;BME280;37417;48.118;11.734;2023-05-23T03:55:38;95229.22;;;14.14;100.00
51333;BME280;37417;48.118;11.734;2023-05-23T03:58:24;95229.59;;;14.18;100.00
51333;BME280;37417;48.118;11.734;2023-05-23T04:01:10;95230.72;;;14.22;100.00
51333;BME280;37417;48.118;11.734;2023-05-23T04:03:55;95233.06;;;14.30;100.00
51333;BME280;37417;48.118;11.734;2023-05-23T04:06:41;95232.38;;;14.34;100.00
51333;BME280;37417;48.118;11.734;2023-05-23T04:09:27;95245.50;;;14.34;100.00
51333;BME280;37417;48.118;11.734;2023-05-23T04:12:12;95238.56;;;14.40;100.00
51333;BME280;37417;48.118;11.734;2023-05-23T04:14:58;95241.63;;;14.37;100.00
51333;BME280;37417;48.118;11.734;2023-05-23T04:17:44;95243.13;;;14.45;100.00
51333;BME280;37417;48.118;11.734;2023-05-23T04:20:29;95245.94;;;14.50;100.00
51333;BME280;37417;48.118;11.734;2023-05-23T04:23:15;95250.84;;;14.58;100.00
51333;BME280;37417;48.118;11.734;2023-05-23T04:26:01;95245.63;;;14.70;100.00
51333;BME280;37417;48.118;11.734;2023-05-23T04:28:46;95247.34;;;14.76;100.00
51333;BME280;37417;48.118;11.734;2023-05-23T04:31:33;95253.72;;;14.80;100.00
51333;BME280;37417;48.118;11.734;2023-05-23T04:34:19;95272.13;;;14.80;100.00
51333;BME280;37417;48.118;11.734;2023-05-23T04:37:06;95272.13;;;14.92;100.00
51333;BME280;37417;48.118;11.734;2023-05-23T04:39:53;95269.75;;;14.90;100.00
51333;BME280;37417;48.118;11.734;2023-05-23T04:42:39;95281.28;;;14.89;100.00
51333;BME280;37417;48.118;11.734;2023-05-23T04:45:26;95277.75;;;14.95;100.00
51333;BME280;37417;48.118;11.734;2023-05-23T04:48:13;95282.41;;;14.93;100.00
51333;BME280;37417;48.118;11.734;2023-05-23T04:51:01;95269.66;;;15.08;100.00
51333;BME280;37417;48.118;11.734;2023-05-23T04:53:50;95269.56;;;15.15;100.00
51333;BME280;37417;48.118;11.734;2023-05-23T04:56:36;95263.72;;;15.25;100.00
51333;BME280;37417;48.118;11.734;2023-05-23T04:59:22;95259.25;;;15.25;100.00
51333;BME280;37417;48.118;11.734;2023-05-23T05:02:08;95265.91;;;15.28;100.00
51333;BME280;37417;48.118;11.734;2023-05-23T05:04:54;95267.03;;;15.32;100.00
51333;BME280;37417;48.118;11.734;2023-05-23T05:07:39;95268.53;;;15.28;100.00
51333;BME280;37417;48.118;11.734;2023-05-23T05:10:25;95263.38;;;15.33;100.00
51333;BME280;37417;48.118;11.734;2023-05-23T05:13:11;95265.53;;;15.24;100.00
51333;BME280;37417;48.118;11.734;2023-05-23T05:15:57;95258.56;;;15.41;100.00
51333;BME280;37417;48.118;11.734;2023-05-23T05:18:43;95262.44;;;15.39;100.00
51333;BME280;37417;48.118;11.734;2023-05-23T05:21:28;95271.59;;;15.48;100.00
51333;BME280;37417;48.118;11.734;2023-05-23T05:24:14;95272.28;;;15.32;100.00
51333;BME280;37417;48.118;11.734;2023-05-23T05:27:00;95263.59;;;15.43;100.00
51333;BME280;37417;48.118;11.734;2023-05-23T05:29:46;95277.19;;;15.52;100.00
51333;BME280;37417;48.118;11.734;2023-05-23T05:32:32;95268.63;;;15.56;100.00
51333;BME280;37417;48.118;11.734;2023-05-23T05:35:18;95272.53;;;15.65;100.00
51333;BME280;37417;48.118;11.734;2023-05-23T05:38:03;95266.69;;;15.75;100.00
51333;BME280;37417;48.118;11.734;2023-05-23T05:40:49;95264.38;;;15.79;100.00
51333;BME280;37417;48.118;11.734;2023-05-23T05:43:35;95253.41;;;15.82;100.00
51333;BME280;37417;48.118;11.734;2023-05-23T05:46:20;95253.94;;;15.84;100.00
51333;BME280;37417;48.118;11.734;2023-05-23T05:49:06;95255.78;;;15.83;100.00
51333;BME280;37417;48.118;11.734;2023-05-23T05:51:52;95257.56;;;16.06;100.00
51333;BME280;37417;48.118;11.734;2023-05-23T05:54:37;95251.81;;;16.09;100.00
51333;BME280;37417;48.118;11.734;2023-05-23T05:57:23;95253.19;;;16.40;100.00
51333;BME280;37417;48.118;11.734;2023-05-23T06:00:11;95256.59;;;16.69;100.00
51333;BME280;37417;48.118;11.734;2023-05-23T06:02:59;95266.13;;;16.70;100.00
51333;BME280;37417;48.118;11.734;2023-05-23T06:05:45;95266.53;;;16.50;100.00
51333;BME280;37417;48.118;11.734;2023-05-23T06:08:30;95277.78;;;16.46;100.00
51333;BME280;37417;48.118;11.734;2023-05-23T06:11:16;95277.56;;;16.36;100.00
51333;BME280;37417;48.118;11.734;2023-05-23T06:14:02;95275.88;;;16.01;100.00
51333;BME280;37417;48.118;11.734;2023-05-23T06:16:47;95277.44;;;16.14;100.00
51333;BME280;37417;48.118;11.734;2023-05-23T06:19:33;95275.25;;;16.96;100.00
51333;BME280;37417;48.118;11.734;2023-05-23T06:22:19;95268.22;;;17.96;100.00
51333;BME280;37417;48.118;11.734;2023-05-23T06:25:05;95265.78;;;18.87;100.00
51333;BME280;37417;48.118;11.734;2023-05-23T06:27:51;95267.22;;;18.68;100.00
51333;BME280;37417;48.118;11.734;2023-05-23T06:30:37;95257.91;;;19.67;100.00
51333;BME280;37417;48.118;11.734;2023-05-23T06:33:23;95269.81;;;19.69;100.00
51333;BME280;37417;48.118;11.734;2023-05-23T06:36:08;95267.84;;;19.97;100.00
51333;BME280;37417;48.118;11.734;2023-05-23T06:38:54;95270.59;;;19.65;100.00
51333;BME280;37417;48.118;11.734;2023-05-23T06:41:42;95275.66;;;19.34;100.00
51333;BME280;37417;48.118;11.734;2023-05-23T06:44:27;95276.00;;;19.85;100.00
51333;BME280;37417;48.118;11.734;2023-05-23T06:47:13;95271.50;;;19.86;100.00
51333;BME280;37417;48.118;11.734;2023-05-23T06:49:59;95266.25;;;21.20;100.00
51333;BME280;37417;48.118;11.734;2023-05-23T06:52:44;95271.19;;;21.82;100.00
51333;BME280;37417;48.118;11.734;2023-05-23T06:55:31;95261.47;;;21.52;100.00
51333;BME280;37417;48.118;11.734;2023-05-23T06:58:18;95275.53;;;20.87;100.00
51333;BME280;37417;48.118;11.734;2023-05-23T07:01:06;95269.38;;;20.66;100.00
51333;BME280;37417;48.118;11.734;2023-05-23T07:03:52;95287.66;;;19.47;100.00
51333;BME280;37417;48.118;11.734;2023-05-23T07:06:38;95286.59;;;19.85;100.00
51333;BME280;37417;48.118;11.734;2023-05-23T07:09:24;95281.59;;;21.74;100.00
51333;BME280;37417;48.118;11.734;2023-05-23T07:12:10;95278.13;;;21.73;100.00
51333;BME280;37417;48.118;11.734;2023-05-23T07:14:55;95287.69;;;21.79;100.00
51333;BME280;37417;48.118;11.734;2023-05-23T07:17:41;95278.03;;;20.41;100.00
51333;BME280;37417;48.118;11.734;2023-05-23T07:20:27;95283.28;;;19.63;100.00
51333;BME280;37417;48.118;11.734;2023-05-23T07:23:12;95289.69;;;19.03;100.00
51333;BME280;37417;48.118;11.734;2023-05-23T07:25:58;95286.03;;;18.77;100.00
51333;BME280;37417;48.118;11.734;2023-05-23T07:28:44;95296.00;;;18.70;100.00
51333;BME280;37417;48.118;11.734;2023-05-23T07:31:30;95292.38;;;19.40;100.00
51333;BME280;37417;48.118;11.734;2023-05-23T07:34:16;95292.91;;;19.42;100.00
51333;BME280;37417;48.118;11.734;2023-05-23T07:37:01;95292.97;;;19.15;100.00
51333;BME280;37417;48.118;11.734;2023-05-23T07:39:47;95298.84;;;18.41;100.00
51333;BME280;37417;48.118;11.734;2023-05-23T07:42:32;95302.41;;;18.52;100.00
51333;BME280;37417;48.118;11.734;2023-05-23T07:45:18;95298.44;;;18.27;100.00
51333;BME280;37417;48.118;11.734;2023-05-23T07:48:04;95307.22;;;18.11;100.00
51333;BME280;37417;48.118;11.734;2023-05-23T07:50:49;95297.09;;;18.25;100.00
51333;BME280;37417;48.118;11.734;2023-05-23T07:53:39;95308.56;;;18.35;100.00
51333;BME280;37417;48.118;11.734;2023-05-23T07:56:25;95310.44;;;18.62;100.00
51333;BME280;37417;48.118;11.734;2023-05-23T07:59:11;95301.25;;;19.61;100.00
51333;BME280;37417;48.118;11.734;2023-05-23T08:02:01;95300.28;;;19.72;100.00
51333;BME280;37417;48.118;11.734;2023-05-23T08:04:47;95310.25;;;18.96;100.00
51333;BME280;37417;48.118;11.734;2023-05-23T08:07:32;95309.16;;;18.91;100.00
51333;BME280;37417;48.118;11.734;2023-05-23T08:10:18;95307.91;;;18.72;100.00
51333;BME280;37417;48.118;11.734;2023-05-23T08:13:04;95303.53;;;18.83;100.00
51333;BME280;37417;48.118;11.734;2023-05-23T08:15:51;95304.44;;;18.93;100.00
51333;BME280;37417;48.118;11.734;2023-05-23T08:18:37;95308.00;;;19.09;100.00
51333;BME280;37417;48.118;11.734;2023-05-23T08:21:22;95308.44;;;19.65;100.00
51333;BME280;37417;48.118;11.734;2023-05-23T08:24:08;95314.28;;;19.67;100.00
51333;BME280;37417;48.118;11.734;2023-05-23T08:26:54;95317.41;;;20.12;100.00
51333;BME280;37417;48.118;11.734;2023-05-23T08:29:39;95321.78;;;19.48;100.00
51333;BME280;37417;48.118;11.734;2023-05-23T08:32:25;95318.84;;;19.82;100.00
51333;BME280;37417;48.118;11.734;2023-05-23T08:35:11;95326.31;;;19.53;100.00
51333;BME280;37417;48.118;11.734;2023-05-23T08:37:56;95323.13;;;18.65;100.00
51333;BME280;37417;48.118;11.734;2023-05-23T08:40:47;95324.97;;;18.86;100.00
51333;BME280;37417;48.118;11.734;2023-05-23T08:43:34;95328.63;;;19.44;100.00
51333;BME280;37417;48.118;11.734;2023-05-23T08:46:21;95329.31;;;19.30;100.00
51333;BME280;37417;48.118;11.734;2023-05-23T08:49:07;95337.56;;;19.33;100.00
51333;BME280;37417;48.118;11.734;2023-05-23T08:51:55;95331.06;;;18.65;100.00
51333;BME280;37417;48.118;11.734;2023-05-23T08:54:44;95335.25;;;18.61;100.00
51333;BME280;37417;48.118;11.734;2023-05-23T08:57:30;95329.41;;;18.59;100.00
51333;BME280;37417;48.118;11.734;2023-05-23T09:00:16;95330.22;;;18.81;100.00
51333;BME280;37417;48.118;11.734;2023-05-23T09:03:03;95326.50;;;18.55;100.00
51333;BME280;37417;48.118;11.734;2023-05-23T09:05:49;95336.13;;;18.66;100.00
51333;BME280;37417;48.118;11.734;2023-05-23T09:08:35;95337.53;;;18.52;100.00
51333;BME280;37417;48.118;11.734;2023-05-23T09:11:21;95331.81;;;18.82;100.00
51333;BME280;37417;48.118;11.734;2023-05-23T09:14:08;95333.69;;;18.87;100.00
51333;BME280;37417;48.118;11.734;2023-05-23T09:16:59;95346.22;;;18.97;100.00
51333;BME280;37417;48.118;11.734;2023-05-23T09:19:46;95344.50;;;19.12;100.00
51333;BME280;37417;48.118;11.734;2023-05-23T09:22:31;95351.09;;;19.10;100.00
51333;BME280;37417;48.118;11.734;2023-05-23T09:25:17;95350.84;;;19.75;100.00
51333;BME280;37417;48.118;11.734;2023-05-23T09:28:03;95352.06;;;19.31;100.00
51333;BME280;37417;48.118;11.734;2023-05-23T09:31:06;95349.38;;;18.93;100.00
51333;BME280;37417;48.118;11.734;2023-05-23T09:33:52;95356.25;;;18.94;100.00
51333;BME280;37417;48.118;11.734;2023-05-23T09:36:39;95349.47;;;18.77;100.00
51333;BME280;37417;48.118;11.734;2023-05-23T09:39:25;95349.56;;;19.46;100.00
51333;BME280;37417;48.118;11.734;2023-05-23T09:42:12;95345.06;;;20.31;100.00
51333;BME280;37417;48.118;11.734;2023-05-23T09:45:03;95344.41;;;20.66;100.00
51333;BME280;37417;48.118;11.734;2023-05-23T09:47:50;95340.25;;;21.01;100.00
51333;BME280;37417;48.118;11.734;2023-05-23T09:50:36;95341.06;;;21.06;100.00
51333;BME280;37417;48.118;11.734;2023-05-23T09:53:21;95337.84;;;20.99;100.00
51333;BME280;37417;48.118;11.734;2023-05-23T09:56:09;95344.66;;;19.60;100.00
51333;BME280;37417;48.118;11.734;2023-05-23T09:58:56;95347.09;;;20.19;100.00
51333;BME280;37417;48.118;11.734;2023-05-23T10:01:43;95345.81;;;20.26;100.00
51333;BME280;37417;48.118;11.734;2023-05-23T10:04:34;95349.22;;;20.17;100.00
51333;BME280;37417;48.118;11.734;2023-05-23T10:07:22;95342.41;;;20.31;100.00
51333;BME280;37417;48.118;11.734;2023-05-23T10:10:09;95337.44;;;20.45;100.00
51333;BME280;37417;48.118;11.734;2023-05-23T10:12:57;95348.66;;;20.10;100.00
51333;BME280;37417;48.118;11.734;2023-05-23T10:15:43;95330.97;;;21.24;100.00
51333;BME280;37417;48.118;11.734;2023-05-23T10:18:33;95333.22;;;20.49;100.00
51333;BME280;37417;48.118;11.734;2023-05-23T10:21:28;95333.59;;;19.68;100.00
51333;BME280;37417;48.118;11.734;2023-05-23T10:24:17;95338.44;;;20.39;100.00
51333;BME280;37417;48.118;11.734;2023-05-23T10:27:03;95329.22;;;20.46;100.00
51333;BME280;37417;48.118;11.734;2023-05-23T10:29:49;95335.81;;;19.86;100.00
51333;BME280;37417;48.118;11.734;2023-05-23T10:32:37;95335.75;;;19.76;100.00
51333;BME280;37417;48.118;11.734;2023-05-23T10:38:42;95328.19;;;19.20;100.00
51333;BME280;37417;48.118;11.734;2023-05-23T10:41:42;95333.91;;;19.07;100.00
51333;BME280;37417;48.118;11.734;2023-05-23T10:44:30;95334.41;;;20.16;100.00
51333;BME280;37417;48.118;11.734;2023-05-23T10:47:25;95327.75;;;20.96;100.00
51333;BME280;37417;48.118;11.734;2023-05-23T10:50:13;95326.75;;;21.48;100.00
51333;BME280;37417;48.118;11.734;2023-05-23T10:53:03;95328.97;;;22.91;100.00
51333;BME280;37417;48.118;11.734;2023-05-23T10:55:50;95334.13;;;23.50;100.00
51333;BME280;37417;48.118;11.734;2023-05-23T10:58:37;95330.03;;;23.29;100.00
51333;BME280;37417;48.118;11.734;2023-05-23T11:01:23;95330.78;;;22.41;100.00
51333;BME280;37417;48.118;11.734;2023-05-23T11:04:10;95324.03;;;20.82;100.00
51333;BME280;37417;48.118;11.734;2023-05-23T11:06:57;95324.09;;;21.13;100.00
51333;BME280;37417;48.118;11.734;2023-05-23T11:10:08;95317.97;;;21.22;100.00
51333;BME280;37417;48.118;11.734;2023-05-23T11:13:05;95326.22;;;19.75;100.00
51333;BME280;37417;48.118;11.734;2023-05-23T11:15:51;95315.88;;;21.19;100.00
51333;BME280;37417;48.118;11.734;2023-05-23T11:18:37;95327.53;;;21.44;100.00
51333;BME280;37417;48.118;11.734;2023-05-23T11:21:23;95323.00;;;23.77;100.00
51333;BME280;37417;48.118;11.734;2023-05-23T11:24:09;95313.56;;;23.90;90.92
51333;BME280;37417;48.118;11.734;2023-05-23T11:26:58;95319.00;;;23.46;99.70
51333;BME280;37417;48.118;11.734;2023-05-23T11:29:56;95306.28;;;24.20;91.78
51333;BME280;37417;48.118;11.734;2023-05-23T11:32:49;95299.59;;;25.87;82.12
51333;BME280;37417;48.118;11.734;2023-05-23T11:35:35;95300.69;;;26.68;78.95
51333;BME280;37417;48.118;11.734;2023-05-23T11:38:21;95291.47;;;26.33;76.43
51333;BME280;37417;48.118;11.734;2023-05-23T11:41:07;95288.47;;;27.35;72.91
51333;BME280;37417;48.118;11.734;2023-05-23T11:43:53;95290.25;;;24.49;78.50
51333;BME280;37417;48.118;11.734;2023-05-23T11:46:39;95286.03;;;27.47;71.52
51333;BME280;37417;48.118;11.734;2023-05-23T11:49:27;95288.22;;;28.38;63.18
51333;BME280;37417;48.118;11.734;2023-05-23T11:52:13;95286.72;;;30.73;55.95
51333;BME280;37417;48.118;11.734;2023-05-23T11:55:00;95293.69;;;29.98;56.78
51333;BME280;37417;48.118;11.734;2023-05-23T11:57:47;95303.56;;;28.55;58.15
51333;BME280;37417;48.118;11.734;2023-05-23T12:00:33;95299.91;;;26.27;64.58
51333;BME280;37417;48.118;11.734;2023-05-23T12:03:19;95301.63;;;27.98;59.93
51333;BME280;37417;48.118;11.734;2023-05-23T12:06:04;95306.25;;;25.57;69.72
51333;BME280;37417;48.118;11.734;2023-05-23T12:08:51;95312.69;;;23.71;81.53
51333;BME280;37417;48.118;11.734;2023-05-23T12:11:38;95305.16;;;22.01;90.33
51333;BME280;37417;48.118;11.734;2023-05-23T12:14:27;95301.56;;;25.49;81.42
51333;BME280;37417;48.118;11.734;2023-05-23T12:17:13;95302.97;;;24.28;78.09
51333;BME280;37417;48.118;11.734;2023-05-23T12:19:59;95299.97;;;24.77;81.69
51333;BME280;37417;48.118;11.734;2023-05-23T12:22:45;95306.66;;;23.26;83.10
51333;BME280;37417;48.118;11.734;2023-05-23T12:25:40;95302.50;;;21.96;96.31
51333;BME280;37417;48.118;11.734;2023-05-23T12:28:42;95311.75;;;23.17;93.03
51333;BME280;37417;48.118;11.734;2023-05-23T12:31:29;95289.22;;;25.53;81.70
51333;BME280;37417;48.118;11.734;2023-05-23T12:34:15;95292.97;;;26.12;71.88
51333;BME280;37417;48.118;11.734;2023-05-23T12:37:00;95297.13;;;25.44;77.52
51333;BME280;37417;48.118;11.734;2023-05-23T12:39:48;95297.00;;;24.17;80.41
51333;BME280;37417;48.118;11.734;2023-05-23T12:42:51;95301.03;;;23.91;91.11
51333;BME280;37417;48.118;11.734;2023-05-23T12:45:37;95291.41;;;26.88;77.47
51333;BME280;37417;48.118;11.734;2023-05-23T12:48:23;95281.03;;;29.34;61.65
51333;BME280;37417;48.118;11.734;2023-05-23T12:51:09;95291.94;;;31.98;53.24
51333;BME280;37417;48.118;11.734;2023-05-23T12:53:55;95302.31;;;25.68;67.29
51333;BME280;37417;48.118;11.734;2023-05-23T12:56:41;95303.16;;;25.17;74.25
51333;BME280;37417;48.118;11.734;2023-05-23T12:59:27;95315.94;;;24.40;73.96
51333;BME280;37417;48.118;11.734;2023-05-23T13:02:12;95306.22;;;23.43;79.19
51333;BME280;37417;48.118;11.734;2023-05-23T13:04:58;95311.09;;;22.47;86.20
51333;BME280;37417;48.118;11.734;2023-05-23T13:07:44;95301.09;;;25.47;78.04
51333;BME280;37417;48.118;11.734;2023-05-23T13:10:29;95295.47;;;26.22;70.91
51333;BME280;37417;48.118;11.734;2023-05-23T13:13:15;95301.47;;;26.69;64.81
51333;BME280;37417;48.118;11.734;2023-05-23T13:16:00;95295.59;;;28.32;60.49
51333;BME280;37417;48.118;11.734;2023-05-23T13:18:46;95289.41;;;28.15;58.79
51333;BME280;37417;48.118;11.734;2023-05-23T13:21:32;95291.28;;;25.88;64.66
51333;BME280;37417;48.118;11.734;2023-05-23T13:24:17;95291.19;;;22.94;82.71
51333;BME280;37417;48.118;11.734;2023-05-23T13:27:04;95294.78;;;23.13;87.95
51333;BME280;37417;48.118;11.734;2023-05-23T13:29:50;95300.09;;;22.69;89.87
51333;BME280;37417;48.118;11.734;2023-05-23T13:32:35;95290.63;;;21.73;93.86
51333;BME280;37417;48.118;11.734;2023-05-23T13:35:21;95294.81;;;24.67;82.30
51333;BME280;37417;48.118;11.734;2023-05-23T13:38:07;95290.00;;;22.66;85.25
51333;BME280;37417;48.118;11.734;2023-05-23T13:40:53;95278.44;;;26.04;71.35
51333;BME280;37417;48.118;11.734;2023-05-23T13:43:38;95283.00;;;29.80;62.22
51333;BME280;37417;48.118;11.734;2023-05-23T13:46:24;95271.84;;;29.99;55.58
51333;BME280;37417;48.118;11.734;2023-05-23T13:49:10;95280.56;;;24.91;65.66
51333;BME280;37417;48.118;11.734;2023-05-23T13:51:55;95274.88;;;24.59;69.23
51333;BME280;37417;48.118;11.734;2023-05-23T13:54:41;95270.91;;;23.03;80.78
51333;BME280;37417;48.118;11.734;2023-05-23T13:57:27;95270.69;;;23.00;78.29
51333;BME280;37417;48.118;11.734;2023-05-23T14:00:13;95270.22;;;21.38;85.65
51333;BME280;37417;48.118;11.734;2023-05-23T14:02:59;95274.75;;;21.01;90.66
51333;BME280;37417;48.118;11.734;2023-05-23T14:05:45;95284.81;;;21.15;91.22
51333;BME280;37417;48.118;11.734;2023-05-23T14:08:30;95285.34;;;21.12;91.84
51333;BME280;37417;48.118;11.734;2023-05-23T14:11:16;95287.97;;;20.81;90.57
51333;BME280;37417;48.118;11.734;2023-05-23T14:14:02;95295.38;;;20.79;86.57
51333;BME280;37417;48.118;11.734;2023-05-23T14:16:49;95314.28;;;19.35;100.00
51333;BME280;37417;48.118;11.734;2023-05-23T14:19:35;95302.47;;;18.57;100.00
51333;BME280;37417;48.118;11.734;2023-05-23T14:22:21;95297.44;;;17.90;100.00
51333;BME280;37417;48.118;11.734;2023-05-23T14:25:07;95299.09;;;17.74;100.00
51333;BME280;37417;48.118;11.734;2023-05-23T14:27:53;95298.69;;;17.65;100.00
51333;BME280;37417;48.118;11.734;2023-05-23T14:30:38;95297.03;;;17.59;100.00